createdAt,value
2017-04-19T00:00:15.223Z,0.06
2017-04-19T00:01:25.471Z,0
2017-04-19T00:02:35.723Z,0.02
2017-04-19T00:03:45.976Z,0.09
2017-04-19T00:04:56.222Z,0.08
2017-04-19T00:06:07.184Z,0
2017-04-19T00:07:17.434Z,0.01
2017-04-19T00:08:27.702Z,-0.03
2017-04-19T00:09:37.956Z,-0.07
2017-04-19T00:10:48.209Z,-0.17
2017-04-19T00:12:00.197Z,-0.15
2017-04-19T00:13:10.140Z,-0.13
2017-04-19T00:14:20.398Z,-0.12
2017-04-19T00:15:30.651Z,-0.15
2017-04-19T00:16:40.903Z,-0.13
2017-04-19T00:17:52.944Z,-0.17
2017-04-19T00:19:03.189Z,-0.15
2017-04-19T00:20:13.502Z,-0.05
2017-04-19T00:21:23.443Z,-0.07
2017-04-19T00:22:33.064Z,-0.05
2017-04-19T00:23:43.364Z,-0.15
2017-04-19T00:24:53.626Z,-0.03
2017-04-19T00:26:03.875Z,-0.09
2017-04-19T00:27:13.825Z,-0.07
2017-04-19T00:28:24.080Z,-0.1
2017-04-19T00:29:34.071Z,-0.09
2017-04-19T00:30:44.327Z,-0.21
2017-04-19T00:31:54.583Z,-0.2
2017-04-19T00:33:04.520Z,-0.28
2017-04-19T00:34:14.768Z,-0.39
2017-04-19T00:35:25.280Z,-0.39
2017-04-19T00:36:35.538Z,-0.44
2017-04-19T00:37:45.794Z,-0.49
2017-04-19T00:38:56.041Z,-0.51
2017-04-19T00:40:06.301Z,-0.54
2017-04-19T00:41:16.288Z,-0.48
2017-04-19T00:42:26.537Z,-0.54
2017-04-19T00:43:36.483Z,-0.56
2017-04-19T00:44:46.727Z,-0.53
2017-04-19T00:45:56.690Z,-0.53
2017-04-19T00:47:06.994Z,-0.54
2017-04-19T00:48:17.479Z,-0.57
2017-04-19T00:49:27.732Z,-0.54
2017-04-19T00:50:37.991Z,-0.62
2017-04-19T00:51:48.246Z,-0.54
2017-04-19T00:52:58.553Z,-0.59
2017-04-19T00:54:08.853Z,-0.63
2017-04-19T00:55:19.102Z,-0.59
2017-04-19T00:56:29.053Z,-0.59
2017-04-19T00:57:39.303Z,-0.63
2017-04-19T00:58:49.566Z,-0.56
2017-04-19T00:59:59.821Z,-0.6
2017-04-19T01:01:10.078Z,-0.69
2017-04-19T01:02:20.326Z,-0.62
2017-04-19T01:03:30.578Z,-0.7
2017-04-19T01:04:40.828Z,-0.67
2017-04-19T01:05:51.085Z,-0.66
2017-04-19T01:07:01.338Z,-0.57
2017-04-19T01:08:11.588Z,-0.57
2017-04-19T01:09:21.845Z,-0.6
2017-04-19T01:10:32.104Z,-0.56
2017-04-19T01:11:42.647Z,-0.56
2017-04-19T01:12:53.038Z,-0.6
2017-04-19T01:14:02.661Z,-0.56
2017-04-19T01:15:12.917Z,-0.63
2017-04-19T01:16:23.165Z,-0.54
2017-04-19T01:17:33.413Z,-0.57
2017-04-19T01:18:43.671Z,-0.49
2017-04-19T01:19:53.607Z,-0.56
2017-04-19T01:21:03.853Z,-0.57
2017-04-19T01:22:14.103Z,-0.59
2017-04-19T01:23:24.042Z,-0.6
2017-04-19T01:24:33.973Z,-0.66
2017-04-19T01:25:44.225Z,-0.6
2017-04-19T01:26:54.475Z,-0.6
2017-04-19T01:28:04.415Z,-0.59
2017-04-19T01:29:14.668Z,-0.74
2017-04-19T01:30:24.933Z,-0.66
2017-04-19T01:31:34.873Z,-0.64
2017-04-19T01:32:45.127Z,-0.63
2017-04-19T01:33:55.382Z,-0.66
2017-04-19T01:35:05.634Z,-0.69
2017-04-19T01:36:15.575Z,-0.77
2017-04-19T01:37:25.823Z,-0.67
2017-04-19T01:38:35.760Z,-0.75
2017-04-19T01:39:45.697Z,-0.77
2017-04-19T01:40:55.950Z,-0.72
2017-04-19T01:42:06.203Z,-0.7
2017-04-19T01:43:16.146Z,-0.75
2017-04-19T01:44:26.406Z,-0.8
2017-04-19T01:45:36.658Z,-0.82
2017-04-19T01:46:46.913Z,-0.75
2017-04-19T01:47:57.165Z,-0.77
2017-04-19T01:49:07.139Z,-0.89
2017-04-19T01:50:17.082Z,-0.85
2017-04-19T01:51:27.338Z,-0.85
2017-04-19T01:52:37.274Z,-0.85
2017-04-19T01:53:46.898Z,-0.93
2017-04-19T01:54:57.158Z,-0.85
2017-04-19T01:56:07.409Z,-0.96
2017-04-19T01:57:17.030Z,-0.91
2017-04-19T01:58:26.969Z,-0.85
2017-04-19T01:59:37.220Z,-0.85
2017-04-19T02:00:47.726Z,-0.93
2017-04-19T02:01:58.451Z,-0.89
2017-04-19T02:03:08.393Z,-0.85
2017-04-19T02:04:18.648Z,-1.01
2017-04-19T02:05:28.900Z,-0.84
2017-04-19T02:06:38.838Z,-0.94
2017-04-19T02:07:49.100Z,-0.96
2017-04-19T02:08:59.363Z,-0.97
2017-04-19T02:10:09.302Z,-0.97
2017-04-19T02:11:19.242Z,-1.03
2017-04-19T02:12:29.489Z,-0.96
2017-04-19T02:13:39.432Z,-1.03
2017-04-19T02:14:49.684Z,-1.07
2017-04-19T02:15:59.934Z,-1.03
2017-04-19T02:17:09.877Z,-1.15
2017-04-19T02:18:20.130Z,-1.07
2017-04-19T02:19:30.388Z,-1.11
2017-04-19T02:20:40.376Z,-1.14
2017-04-19T02:21:50.633Z,-1.12
2017-04-19T02:23:00.575Z,-1.09
2017-04-19T02:24:10.832Z,-1.12
2017-04-19T02:25:21.090Z,-1.07
2017-04-19T02:26:31.341Z,-1.03
2017-04-19T02:27:41.592Z,-1
2017-04-19T02:28:51.863Z,-1.01
2017-04-19T02:30:02.166Z,-1.04
2017-04-19T02:31:12.453Z,-1
2017-04-19T02:32:22.699Z,-1.06
2017-04-19T02:33:32.954Z,-0.97
2017-04-19T02:34:43.212Z,-1.06
2017-04-19T02:35:53.156Z,-1.03
2017-04-19T02:37:03.415Z,-1.07
2017-04-19T02:38:13.037Z,-1.04
2017-04-19T02:39:22.975Z,-1.15
2017-04-19T02:40:33.226Z,-1.12
2017-04-19T02:41:43.480Z,-1.11
2017-04-19T02:42:53.102Z,-1.07
2017-04-19T02:44:03.356Z,-1.06
2017-04-19T02:45:13.648Z,-1.09
2017-04-19T02:46:23.901Z,-1.17
2017-04-19T02:47:34.156Z,-1.11
2017-04-19T02:48:44.102Z,-1.09
2017-04-19T02:49:54.358Z,-1.15
2017-04-19T02:51:04.611Z,-1.09
2017-04-19T02:52:14.858Z,-1.14
2017-04-19T02:53:24.793Z,-1.18
2017-04-19T02:54:35.045Z,-1.17
2017-04-19T02:55:44.663Z,-1.19
2017-04-19T02:56:55.012Z,-1.27
2017-04-19T02:58:04.942Z,-1.17
2017-04-19T02:59:15.376Z,-1.17
2017-04-19T03:00:25.637Z,-1.18
2017-04-19T03:01:35.572Z,-1.19
2017-04-19T03:02:45.512Z,-1.19
2017-04-19T03:03:55.453Z,-1.32
2017-04-19T03:05:05.391Z,-1.32
2017-04-19T03:06:15.647Z,-1.22
2017-04-19T03:07:25.897Z,-1.3
2017-04-19T03:08:36.151Z,-1.27
2017-04-19T03:09:46.410Z,-1.29
2017-04-19T03:10:56.658Z,-1.22
2017-04-19T03:12:06.904Z,-1.3
2017-04-19T03:13:17.163Z,-1.29
2017-04-19T03:14:27.411Z,-1.29
2017-04-19T03:15:37.662Z,-1.3
2017-04-19T03:16:47.909Z,-1.29
2017-04-19T03:17:58.162Z,-1.25
2017-04-19T03:19:08.414Z,-1.25
2017-04-19T03:20:18.667Z,-1.24
2017-04-19T03:21:28.919Z,-1.33
2017-04-19T03:22:39.165Z,-1.29
2017-04-19T03:23:49.119Z,-1.29
2017-04-19T03:24:59.369Z,-1.32
2017-04-19T03:26:09.710Z,-1.29
2017-04-19T03:27:19.960Z,-1.25
2017-04-19T03:28:30.209Z,-1.3
2017-04-19T03:29:40.146Z,-1.3
2017-04-19T03:30:50.089Z,-1.32
2017-04-19T03:32:00.339Z,-1.25
2017-04-19T03:33:10.583Z,-1.4
2017-04-19T03:34:20.838Z,-1.38
2017-04-19T03:35:31.098Z,-1.32
2017-04-19T03:36:41.031Z,-1.36
2017-04-19T03:37:51.280Z,-1.33
2017-04-19T03:39:01.213Z,-1.46
2017-04-19T03:40:11.466Z,-1.39
2017-04-19T03:41:21.715Z,-1.42
2017-04-19T03:42:31.967Z,-1.43
2017-04-19T03:43:41.902Z,-1.43
2017-04-19T03:44:52.159Z,-1.57
2017-04-19T03:46:02.411Z,-1.58
2017-04-19T03:47:12.674Z,-1.48
2017-04-19T03:48:22.920Z,-1.5
2017-04-19T03:49:32.861Z,-1.57
2017-04-19T03:50:43.112Z,-1.56
2017-04-19T03:51:53.375Z,-1.58
2017-04-19T03:53:03.314Z,-1.6
2017-04-19T03:54:13.365Z,-1.57
2017-04-19T03:55:23.616Z,-1.58
2017-04-19T03:56:33.555Z,-1.64
2017-04-19T03:57:43.818Z,-1.58
2017-04-19T03:58:53.765Z,-1.6
2017-04-19T04:00:04.020Z,-1.54
2017-04-19T04:01:14.273Z,-1.56
2017-04-19T04:02:24.529Z,-1.4
2017-04-19T04:03:34.461Z,-1.48
2017-04-19T04:04:44.395Z,-1.57
2017-04-19T04:05:54.644Z,-1.53
2017-04-19T04:07:04.894Z,-1.42
2017-04-19T04:08:15.149Z,-1.48
2017-04-19T04:09:25.398Z,-1.46
2017-04-19T04:10:35.648Z,-1.45
2017-04-19T04:11:45.903Z,-1.43
2017-04-19T04:12:56.155Z,-1.57
2017-04-19T04:14:06.420Z,-1.45
2017-04-19T04:15:16.678Z,-1.45
2017-04-19T04:16:26.928Z,-1.45
2017-04-19T04:17:37.181Z,-1.56
2017-04-19T04:18:47.129Z,-1.43
2017-04-19T04:19:57.068Z,-1.42
2017-04-19T04:21:07.324Z,-1.46
2017-04-19T04:22:17.575Z,-1.42
2017-04-19T04:23:27.689Z,-1.42
2017-04-19T04:24:37.820Z,-1.4
2017-04-19T04:25:48.073Z,-1.38
2017-04-19T04:26:58.325Z,-1.43
2017-04-19T04:28:08.580Z,-1.38
2017-04-19T04:29:18.826Z,-1.38
2017-04-19T04:30:29.078Z,-1.33
2017-04-19T04:31:39.322Z,-1.35
2017-04-19T04:32:49.268Z,-1.29
2017-04-19T04:33:59.558Z,-1.36
2017-04-19T04:35:09.810Z,-1.27
2017-04-19T04:36:20.061Z,-1.38
2017-04-19T04:37:30.313Z,-1.27
2017-04-19T04:38:40.566Z,-1.33
2017-04-19T04:39:50.502Z,-1.3
2017-04-19T04:41:00.750Z,-1.3
2017-04-19T04:42:11.016Z,-1.25
2017-04-19T04:43:21.268Z,-1.22
2017-04-19T04:44:31.207Z,-1.18
2017-04-19T04:45:41.456Z,-1.15
2017-04-19T04:46:51.706Z,-1.18
2017-04-19T04:48:01.641Z,-1.17
2017-04-19T04:49:11.574Z,-1.18
2017-04-19T04:50:21.903Z,-1.11
2017-04-19T04:51:31.527Z,-1.06
2017-04-19T04:52:42.018Z,-1.09
2017-04-19T04:53:52.075Z,-1.03
2017-04-19T04:55:02.329Z,-1.17
2017-04-19T04:56:12.583Z,-1.03
2017-04-19T04:57:22.837Z,-0.99
2017-04-19T04:58:32.777Z,-0.97
2017-04-19T04:59:43.025Z,-0.97
2017-04-19T05:00:53.312Z,-0.97
2017-04-19T05:02:03.250Z,-0.97
2017-04-19T05:03:13.504Z,-1
2017-04-19T05:04:23.758Z,-0.94
2017-04-19T05:05:33.699Z,-0.93
2017-04-19T05:06:43.950Z,-0.81
2017-04-19T05:07:54.207Z,-0.91
2017-04-19T05:09:03.840Z,-0.89
2017-04-19T05:10:14.097Z,-0.77
2017-04-19T05:11:24.071Z,-0.81
2017-04-19T05:12:34.007Z,-0.81
2017-04-19T05:13:44.260Z,-0.75
2017-04-19T05:14:54.508Z,-0.74
2017-04-19T05:16:04.768Z,-0.77
2017-04-19T05:17:15.018Z,-0.78
2017-04-19T05:18:24.957Z,-0.77
2017-04-19T05:19:35.112Z,-0.75
2017-04-19T05:20:45.407Z,-0.75
2017-04-19T05:21:55.651Z,-0.78
2017-04-19T05:23:05.593Z,-0.75
2017-04-19T05:24:15.526Z,-0.69
2017-04-19T05:25:25.778Z,-0.7
2017-04-19T05:26:35.721Z,-0.72
2017-04-19T05:27:45.970Z,-0.75
2017-04-19T05:28:55.595Z,-0.72
2017-04-19T05:30:05.532Z,-0.75
2017-04-19T05:31:15.473Z,-0.81
2017-04-19T05:32:25.409Z,-0.7
2017-04-19T05:33:35.044Z,-0.77
2017-04-19T05:34:45.294Z,-0.57
2017-04-19T05:35:55.547Z,-0.62
2017-04-19T05:37:05.799Z,-0.57
2017-04-19T05:38:16.051Z,-0.44
2017-04-19T05:39:25.998Z,-0.45
2017-04-19T05:40:36.258Z,-0.38
2017-04-19T05:41:46.197Z,-0.38
2017-04-19T05:42:56.454Z,-0.39
2017-04-19T05:44:06.709Z,-0.35
2017-04-19T05:45:16.964Z,-0.39
2017-04-19T05:46:26.915Z,-0.42
2017-04-19T05:47:37.204Z,-0.3
2017-04-19T05:48:47.565Z,-0.33
2017-04-19T05:49:57.817Z,-0.28
2017-04-19T05:51:08.066Z,-0.28
2017-04-19T05:52:18.326Z,-0.46
2017-04-19T05:53:28.266Z,-0.36
2017-04-19T05:54:37.890Z,-0.45
2017-04-19T05:55:48.145Z,-0.45
2017-04-19T05:56:58.390Z,-0.41
2017-04-19T05:58:08.326Z,-0.38
2017-04-19T05:59:18.585Z,-0.39
2017-04-19T06:00:28.846Z,-0.46
2017-04-19T06:01:39.100Z,-0.38
2017-04-19T06:02:49.350Z,-0.38
2017-04-19T06:03:59.292Z,-0.38
2017-04-19T06:05:09.550Z,-0.57
2017-04-19T06:06:19.184Z,-0.57
2017-04-19T06:07:29.432Z,-0.54
2017-04-19T06:08:39.061Z,-0.56
2017-04-19T06:09:49.313Z,-0.53
2017-04-19T06:10:59.577Z,-0.54
2017-04-19T06:12:09.832Z,-0.56
2017-04-19T06:13:19.777Z,-0.49
2017-04-19T06:14:30.026Z,-0.53
2017-04-19T06:15:40.281Z,-0.57
2017-04-19T06:16:50.215Z,-0.48
2017-04-19T06:18:00.466Z,-0.57
2017-04-19T06:19:10.723Z,-0.46
2017-04-19T06:20:20.975Z,-0.39
2017-04-19T06:21:30.913Z,-0.3
2017-04-19T06:22:40.859Z,-0.21
2017-04-19T06:23:51.113Z,-0.1
2017-04-19T06:25:01.367Z,-0.07
2017-04-19T06:26:11.313Z,-0.06
2017-04-19T06:27:21.606Z,0.08
2017-04-19T06:28:31.856Z,0.02
2017-04-19T06:29:41.797Z,0.09
2017-04-19T06:30:52.052Z,0.02
2017-04-19T06:32:02.304Z,0.12
2017-04-19T06:33:12.558Z,-0.02
2017-04-19T06:34:22.811Z,0.01
2017-04-19T06:35:33.069Z,-0.02
2017-04-19T06:36:43.327Z,-0.09
2017-04-19T06:37:53.578Z,0.08
2017-04-19T06:39:03.831Z,0.02
2017-04-19T06:40:14.092Z,0
2017-04-19T06:41:24.338Z,0.06
2017-04-19T06:42:34.589Z,0
2017-04-19T06:43:44.845Z,0.05
2017-04-19T06:44:54.784Z,0
2017-04-19T06:46:05.044Z,0.12
2017-04-19T06:47:15.010Z,0.18
2017-04-19T06:48:25.340Z,0.29
2017-04-19T06:49:35.604Z,0.27
2017-04-19T06:50:45.882Z,0.26
2017-04-19T06:51:55.825Z,0.31
2017-04-19T06:53:05.773Z,0.33
2017-04-19T06:54:16.033Z,0.45
2017-04-19T06:55:26.289Z,0.39
2017-04-19T06:56:36.549Z,0.34
2017-04-19T06:57:46.798Z,0.33
2017-04-19T06:58:57.048Z,0.45
2017-04-19T07:00:06.992Z,0.44
2017-04-19T07:01:16.929Z,0.33
2017-04-19T07:02:27.185Z,0.51
2017-04-19T07:03:37.140Z,0.44
2017-04-19T07:04:47.393Z,0.44
2017-04-19T07:05:57.650Z,0.52
2017-04-19T07:07:07.908Z,0.51
2017-04-19T07:08:18.162Z,0.58
2017-04-19T07:09:28.104Z,0.68
2017-04-19T07:10:37.729Z,0.7
2017-04-19T07:11:47.985Z,0.78
2017-04-19T07:12:58.243Z,0.91
2017-04-19T07:14:08.180Z,1.03
2017-04-19T07:15:18.438Z,1.13
2017-04-19T07:16:28.696Z,1.28
2017-04-19T07:17:39.320Z,1.27
2017-04-19T07:18:49.570Z,1.32
2017-04-19T07:19:59.841Z,1.42
2017-04-19T07:21:10.106Z,1.49
2017-04-19T07:22:20.050Z,1.57
2017-04-19T07:23:30.302Z,1.6
2017-04-19T07:24:40.560Z,1.66
2017-04-19T07:25:50.203Z,1.81
2017-04-19T07:27:00.142Z,1.81
2017-04-19T07:28:10.437Z,1.85
2017-04-19T07:29:20.692Z,1.88
2017-04-19T07:30:30.950Z,1.97
2017-04-19T07:31:41.211Z,2
2017-04-19T07:32:51.470Z,2.18
2017-04-19T07:34:01.733Z,2.05
2017-04-19T07:35:11.677Z,2.03
2017-04-19T07:36:21.624Z,2.21
2017-04-19T07:37:31.874Z,2.23
2017-04-19T07:38:42.132Z,2.22
2017-04-19T07:39:52.074Z,2.36
2017-04-19T07:41:02.332Z,2.4
2017-04-19T07:42:12.587Z,2.43
2017-04-19T07:43:22.853Z,2.47
2017-04-19T07:44:32.972Z,2.51
2017-04-19T07:45:43.263Z,2.61
2017-04-19T07:46:53.541Z,2.61
2017-04-19T07:48:03.487Z,2.58
2017-04-19T07:49:13.746Z,2.57
2017-04-19T07:50:23.696Z,2.65
2017-04-19T07:51:33.953Z,2.64
2017-04-19T07:52:44.212Z,2.68
2017-04-19T07:53:54.163Z,2.64
2017-04-19T07:55:04.100Z,2.65
2017-04-19T07:56:14.044Z,2.72
2017-04-19T07:57:24.310Z,2.62
2017-04-19T07:58:34.573Z,2.7
2017-04-19T07:59:44.524Z,2.61
2017-04-19T08:00:54.465Z,2.73
2017-04-19T08:02:04.094Z,2.72
2017-04-19T08:03:13.097Z,2.91
2017-04-19T08:04:23.354Z,3.01
2017-04-19T08:05:33.296Z,2.94
2017-04-19T08:06:42.922Z,3.09
2017-04-19T08:07:52.234Z,3.06
2017-04-19T08:09:01.542Z,3.18
2017-04-19T08:10:12.084Z,3.21
2017-04-19T08:11:22.027Z,3.37
2017-04-19T08:12:32.281Z,3.4
2017-04-19T08:13:42.540Z,3.43
2017-04-19T08:14:52.798Z,3.53
2017-04-19T08:16:02.112Z,3.61
2017-04-19T08:17:11.752Z,3.68
2017-04-19T08:18:22.016Z,3.67
2017-04-19T08:19:32.321Z,3.76
2017-04-19T08:20:41.947Z,3.78
2017-04-19T08:21:51.889Z,3.76
2017-04-19T08:23:01.831Z,3.84
2017-04-19T08:24:11.454Z,3.96
2017-04-19T08:25:21.083Z,3.94
2017-04-19T08:26:30.714Z,4.04
2017-04-19T08:27:40.344Z,4.09
2017-04-19T08:28:50.282Z,4.1
2017-04-19T08:30:00.537Z,4.25
2017-04-19T08:31:10.491Z,4.27
2017-04-19T08:32:20.435Z,4.32
2017-04-19T08:33:30.382Z,4.32
2017-04-19T08:34:40.323Z,4.32
2017-04-19T08:35:50.575Z,4.45
2017-04-19T08:37:00.244Z,4.4
2017-04-19T08:38:09.244Z,4.43
2017-04-19T08:39:19.192Z,4.49
2017-04-19T08:40:28.823Z,4.53
2017-04-19T08:41:38.770Z,4.45
2017-04-19T08:42:49.029Z,4.5
2017-04-19T08:43:58.967Z,4.5
2017-04-19T08:45:08.912Z,4.52
2017-04-19T08:46:18.856Z,4.46
2017-04-19T08:47:29.114Z,4.53
2017-04-19T08:48:39.057Z,4.64
2017-04-19T08:49:48.998Z,4.7
2017-04-19T08:50:58.959Z,4.78
2017-04-19T08:52:09.215Z,4.71
2017-04-19T08:53:18.844Z,4.74
2017-04-19T08:54:28.784Z,4.82
2017-04-19T08:55:38.724Z,4.89
2017-04-19T08:56:48.668Z,4.84
2017-04-19T08:57:58.930Z,4.92
2017-04-19T08:59:08.569Z,4.95
2017-04-19T09:00:18.542Z,5
2017-04-19T09:01:28.490Z,4.98
2017-04-19T09:02:38.441Z,5.08
2017-04-19T09:03:48.699Z,5.04
2017-04-19T09:04:58.333Z,5.18
2017-04-19T09:06:08.281Z,5.1
2017-04-19T09:07:17.905Z,5.22
2017-04-19T09:08:27.843Z,5.23
2017-04-19T09:09:37.475Z,5.23
2017-04-19T09:10:47.418Z,5.25
2017-04-19T09:11:57.715Z,5.29
2017-04-19T09:13:07.656Z,5.31
2017-04-19T09:14:17.604Z,5.41
2017-04-19T09:15:27.864Z,5.43
2017-04-19T09:16:37.808Z,5.46
2017-04-19T09:17:47.754Z,5.51
2017-04-19T09:18:57.070Z,5.55
2017-04-19T09:20:06.701Z,5.62
2017-04-19T09:21:16.648Z,5.72
2017-04-19T09:22:26.593Z,5.72
2017-04-19T09:23:36.850Z,5.73
2017-04-19T09:24:46.481Z,5.76
2017-04-19T09:25:56.110Z,5.81
2017-04-19T09:27:06.055Z,5.81
2017-04-19T09:28:16.312Z,5.88
2017-04-19T09:29:26.267Z,5.91
2017-04-19T09:30:35.591Z,6.01
2017-04-19T09:31:45.853Z,6.09
2017-04-19T09:32:55.792Z,5.81
2017-04-19T09:34:05.761Z,5.65
2017-04-19T09:35:15.830Z,5.47
2017-04-19T09:36:25.778Z,5.33
2017-04-19T09:37:36.038Z,5.25
2017-04-19T09:38:46.300Z,5.19
2017-04-19T09:39:56.249Z,5.2
2017-04-19T09:41:05.563Z,5
2017-04-19T09:42:15.822Z,4.79
2017-04-19T09:43:26.095Z,4.68
2017-04-19T09:44:36.037Z,4.68
2017-04-19T09:45:45.989Z,4.75
2017-04-19T09:46:55.940Z,4.7
2017-04-19T09:48:06.204Z,4.76
2017-04-19T09:49:16.456Z,4.74
2017-04-19T09:50:26.409Z,4.78
2017-04-19T09:51:36.666Z,4.78
2017-04-19T09:52:46.294Z,4.79
2017-04-19T09:53:56.241Z,4.83
2017-04-19T09:55:06.188Z,4.97
2017-04-19T09:56:16.443Z,5.01
2017-04-19T09:57:26.075Z,5.13
2017-04-19T09:58:35.708Z,5.26
2017-04-19T09:59:45.334Z,5.47
2017-04-19T10:00:54.971Z,5.65
2017-04-19T10:02:05.383Z,5.83
2017-04-19T10:03:15.625Z,6.05
2017-04-19T10:04:25.566Z,6.22
2017-04-19T10:05:35.835Z,6.49
2017-04-19T10:06:45.777Z,6.59
2017-04-19T10:07:56.038Z,6.74
2017-04-19T10:09:05.984Z,6.87
2017-04-19T10:10:15.612Z,7.05
2017-04-19T10:11:25.557Z,7.21
2017-04-19T10:12:35.498Z,7.41
2017-04-19T10:13:45.132Z,7.58
2017-04-19T10:14:55.086Z,7.7
2017-04-19T10:16:05.351Z,7.87
2017-04-19T10:17:14.986Z,7.9
2017-04-19T10:18:24.929Z,8.05
2017-04-19T10:19:34.574Z,8.21
2017-04-19T10:20:44.203Z,8.27
2017-04-19T10:21:54.148Z,8.39
2017-04-19T10:23:04.101Z,8.44
2017-04-19T10:24:14.047Z,8.64
2017-04-19T10:25:24.000Z,8.75
2017-04-19T10:26:34.258Z,8.82
2017-04-19T10:27:44.205Z,8.99
2017-04-19T10:28:54.237Z,9.13
2017-04-19T10:30:04.183Z,9.15
2017-04-19T10:31:14.134Z,9.37
2017-04-19T10:32:24.079Z,9.47
2017-04-19T10:33:34.338Z,9.55
2017-04-19T10:34:44.285Z,9.63
2017-04-19T10:35:54.545Z,9.76
2017-04-19T10:37:04.185Z,9.8
2017-04-19T10:38:14.144Z,9.82
2017-04-19T10:39:24.416Z,9.21
2017-04-19T10:40:34.680Z,9.11
2017-04-19T10:41:44.631Z,9.03
2017-04-19T10:42:54.899Z,9.09
2017-04-19T10:44:04.842Z,9.15
2017-04-19T10:45:14.484Z,9.29
2017-04-19T10:46:24.750Z,9.45
2017-04-19T10:47:35.007Z,9.59
2017-04-19T10:48:45.266Z,9.84
2017-04-19T10:49:55.519Z,9.94
2017-04-19T10:51:05.158Z,10.1
2017-04-19T10:52:15.106Z,10.15
2017-04-19T10:53:24.734Z,10.1
2017-04-19T10:54:34.676Z,10.25
2017-04-19T10:55:44.941Z,10.21
2017-04-19T10:56:55.259Z,10.24
2017-04-19T10:58:05.727Z,10.2
2017-04-19T10:59:15.672Z,10.06
2017-04-19T11:00:25.318Z,10.06
2017-04-19T11:01:35.287Z,9.95
2017-04-19T11:02:45.234Z,9.92
2017-04-19T11:03:55.492Z,9.82
2017-04-19T11:05:05.775Z,9.8
2017-04-19T11:06:15.729Z,9.62
2017-04-19T11:07:25.366Z,9.56
2017-04-19T11:08:35.634Z,9.52
2017-04-19T11:09:45.894Z,9.58
2017-04-19T11:10:55.836Z,9.44
2017-04-19T11:12:05.779Z,9.29
2017-04-19T11:13:15.102Z,9.12
2017-04-19T11:14:25.355Z,9.22
2017-04-19T11:15:35.617Z,9.29
2017-04-19T11:16:45.255Z,9.58
2017-04-19T11:17:55.517Z,9.58
2017-04-19T11:19:05.146Z,9.73
2017-04-19T11:20:15.096Z,9.92
2017-04-19T11:21:24.732Z,10.15
2017-04-19T11:22:34.684Z,10.57
2017-04-19T11:23:44.631Z,10.59
2017-04-19T11:24:53.645Z,10.65
2017-04-19T11:26:03.595Z,10.67
2017-04-19T11:27:13.933Z,10.76
2017-04-19T11:28:23.881Z,11
2017-04-19T11:29:33.838Z,11.02
2017-04-19T11:30:43.779Z,11.08
2017-04-19T11:31:53.425Z,11.44
2017-04-19T11:33:03.691Z,11.55
2017-04-19T11:34:13.328Z,11.77
2017-04-19T11:35:23.281Z,11.8
2017-04-19T11:36:33.552Z,12
2017-04-19T11:37:43.505Z,12.17
2017-04-19T11:38:53.139Z,12.2
2017-04-19T11:40:03.404Z,12.48
2017-04-19T11:41:13.354Z,12.78
2017-04-19T11:42:23.302Z,13.05
2017-04-19T11:43:33.566Z,12.81
2017-04-19T11:44:43.514Z,12.93
2017-04-19T11:45:53.462Z,12.76
2017-04-19T11:47:02.471Z,12.51
2017-04-19T11:48:12.108Z,12.2
2017-04-19T11:49:22.373Z,12.15
2017-04-19T11:50:32.320Z,11.89
2017-04-19T11:51:42.273Z,11.86
2017-04-19T11:52:52.032Z,11.78
2017-04-19T11:54:02.269Z,11.81
2017-04-19T11:55:12.314Z,11.68
2017-04-19T11:56:22.266Z,11.51
2017-04-19T11:57:32.534Z,11.4
2017-04-19T11:58:42.802Z,11.38
2017-04-19T11:59:52.755Z,11.45
2017-04-19T12:01:03.082Z,11.22
2017-04-19T12:02:13.037Z,11.05
2017-04-19T12:03:23.305Z,10.98
2017-04-19T12:04:33.864Z,10.86
2017-04-19T12:05:43.500Z,10.87
2017-04-19T12:06:53.449Z,10.58
2017-04-19T12:08:03.403Z,10.71
2017-04-19T12:09:13.668Z,10.51
2017-04-19T12:10:23.554Z,10.59
2017-04-19T12:11:33.814Z,10.62
2017-04-19T12:12:44.075Z,10.69
2017-04-19T12:13:54.084Z,10.65
2017-04-19T12:15:04.035Z,10.72
2017-04-19T12:16:14.296Z,10.84
2017-04-19T12:17:24.248Z,10.92
2017-04-19T12:18:34.704Z,10.87
2017-04-19T12:19:44.979Z,10.84
2017-04-19T12:20:54.933Z,10.77
2017-04-19T12:22:04.569Z,10.75
2017-04-19T12:23:14.825Z,10.71
2017-04-19T12:24:24.774Z,10.75
2017-04-19T12:25:35.057Z,10.64
2017-04-19T12:26:44.695Z,10.79
2017-04-19T12:27:54.957Z,10.71
2017-04-19T12:29:04.593Z,10.53
2017-04-19T12:30:14.534Z,10.49
2017-04-19T12:31:24.170Z,10.42
2017-04-19T12:32:34.121Z,10.58
2017-04-19T12:33:44.072Z,10.76
2017-04-19T12:34:54.018Z,10.94
2017-04-19T12:36:03.655Z,11.26
2017-04-19T12:37:13.916Z,11.4
2017-04-19T12:38:24.187Z,11.4
2017-04-19T12:39:34.138Z,11.58
2017-04-19T12:40:44.086Z,11.86
2017-04-19T12:41:54.027Z,12.26
2017-04-19T12:43:03.673Z,12.51
2017-04-19T12:44:13.937Z,12.8
2017-04-19T12:45:23.877Z,12.4
2017-04-19T12:46:34.147Z,13.26
2017-04-19T12:47:44.552Z,14.12
2017-04-19T12:48:55.080Z,14.51
2017-04-19T12:50:05.038Z,14.73
2017-04-19T12:51:14.680Z,15.45
2017-04-19T12:52:24.633Z,15.67
2017-04-19T12:53:34.584Z,15.48
2017-04-19T12:54:44.224Z,14.73
2017-04-19T12:55:53.546Z,14.44
2017-04-19T12:57:03.508Z,14.11
2017-04-19T12:58:13.777Z,13.62
2017-04-19T12:59:23.415Z,13.62
2017-04-19T13:00:33.055Z,13.65
2017-04-19T13:01:42.395Z,13.83
2017-04-19T13:02:52.033Z,14.07
2017-04-19T13:04:01.359Z,14.45
2017-04-19T13:05:11.620Z,14.52
2017-04-19T13:06:21.259Z,14.79
2017-04-19T13:07:31.209Z,14.71
2017-04-19T13:08:41.172Z,14.44
2017-04-19T13:09:51.443Z,14.66
2017-04-19T13:11:01.086Z,14.56
2017-04-19T13:12:11.354Z,14.37
2017-04-19T13:13:20.991Z,14.44
2017-04-19T13:14:31.259Z,14.73
2017-04-19T13:15:41.220Z,15.33
2017-04-19T13:16:50.876Z,15.78
2017-04-19T13:18:01.198Z,15.45
2017-04-19T13:19:10.539Z,15.12
2017-04-19T13:20:20.884Z,15.17
2017-04-19T13:21:30.833Z,15.35
2017-04-19T13:22:40.785Z,15.25
2017-04-19T13:23:50.736Z,15.19
2017-04-19T13:25:00.695Z,15.11
2017-04-19T13:26:10.335Z,15.3
2017-04-19T13:27:19.683Z,15.36
2017-04-19T13:28:29.635Z,15.3
2017-04-19T13:29:39.907Z,15.29
2017-04-19T13:30:49.240Z,15.14
2017-04-19T13:31:59.195Z,14.77
2017-04-19T13:33:08.519Z,14.61
2017-04-19T13:34:18.784Z,14.61
2017-04-19T13:35:28.739Z,14.31
2017-04-19T13:36:38.711Z,14.11
2017-04-19T13:37:48.680Z,14.12
2017-04-19T13:38:58.949Z,13.95
2017-04-19T13:40:08.592Z,13.65
2017-04-19T13:41:18.865Z,13.57
2017-04-19T13:42:28.818Z,13.39
2017-04-19T13:43:38.456Z,13.17
2017-04-19T13:44:48.730Z,13.03
2017-04-19T13:45:59.002Z,12.99
2017-04-19T13:47:09.377Z,12.98
2017-04-19T13:48:19.394Z,12.76
2017-04-19T13:49:29.658Z,12.48
2017-04-19T13:50:39.924Z,12.36
2017-04-19T13:51:50.191Z,12.14
2017-04-19T13:53:00.141Z,12.05
2017-04-19T13:54:09.776Z,12.25
2017-04-19T13:55:20.038Z,12.4
2017-04-19T13:56:30.314Z,12.21
2017-04-19T13:57:40.576Z,12.14
2017-04-19T13:58:50.836Z,12.02
2017-04-19T14:00:01.096Z,11.99
2017-04-19T14:01:11.359Z,11.77
2017-04-19T14:02:21.622Z,11.59
2017-04-19T14:03:31.885Z,11.51
2017-04-19T14:04:42.160Z,11.51
2017-04-19T14:05:52.428Z,11.35
2017-04-19T14:07:02.375Z,11.3
2017-04-19T14:08:12.325Z,11.26
2017-04-19T14:09:22.587Z,11.41
2017-04-19T14:10:32.858Z,11.52
2017-04-19T14:11:43.120Z,11.56
2017-04-19T14:12:53.449Z,11.52
2017-04-19T14:14:04.169Z,11.44
2017-04-19T14:15:14.432Z,11.53
2017-04-19T14:16:24.072Z,11.44
2017-04-19T14:17:34.041Z,11.53
2017-04-19T14:18:44.297Z,11.65
2017-04-19T14:19:54.561Z,11.65
2017-04-19T14:21:04.840Z,11.62
2017-04-19T14:22:14.795Z,11.58
2017-04-19T14:23:25.059Z,11.49
2017-04-19T14:24:35.320Z,11.6
2017-04-19T14:25:44.955Z,11.65
2017-04-19T14:26:54.906Z,11.91
2017-04-19T14:28:04.855Z,12.3
2017-04-19T14:29:14.808Z,12.86
2017-04-19T14:30:24.787Z,13.03
2017-04-19T14:31:35.047Z,13.13
2017-04-19T14:32:45.312Z,13.58
2017-04-19T14:33:55.578Z,13.93
2017-04-19T14:35:05.528Z,13.97
2017-04-19T14:36:15.792Z,14.11
2017-04-19T14:37:25.745Z,14.34
2017-04-19T14:38:36.011Z,14.61
2017-04-19T14:39:46.267Z,14.61
2017-04-19T14:40:56.530Z,14.52
2017-04-19T14:42:06.797Z,14.66
2017-04-19T14:43:16.748Z,14.97
2017-04-19T14:44:27.151Z,15.44
2017-04-19T14:45:37.456Z,15.73
2017-04-19T14:46:47.725Z,16.02
2017-04-19T14:47:57.675Z,16.79
2017-04-19T14:49:07.950Z,17.14
2017-04-19T14:50:18.214Z,17.75
2017-04-19T14:51:28.183Z,18.18
2017-04-19T14:52:38.450Z,17.9
2017-04-19T14:53:48.718Z,18.06
2017-04-19T14:54:58.982Z,18.27
2017-04-19T14:56:09.258Z,18.48
2017-04-19T14:57:19.530Z,18.63
2017-04-19T14:58:29.487Z,18.79
2017-04-19T14:59:39.753Z,19.17
2017-04-19T15:00:50.025Z,19.22
2017-04-19T15:02:00.298Z,18.88
2017-04-19T15:03:10.579Z,18.49
2017-04-19T15:04:20.851Z,18.27
2017-04-19T15:05:30.803Z,18.33
2017-04-19T15:06:41.071Z,18.16
2017-04-19T15:07:51.030Z,17.93
2017-04-19T15:09:01.304Z,17.95
2017-04-19T15:10:11.417Z,18
2017-04-19T15:11:21.607Z,17.71
2017-04-19T15:12:31.879Z,16.72
2017-04-19T15:13:41.830Z,16.72
2017-04-19T15:14:51.484Z,17.39
2017-04-19T15:16:01.752Z,17.8